Time;durP1;ratioP1;P1;durP2;ratioP2;P2;SDS_P1;SDS_P2;PMS_P1;PMS_P2;Temp;Humidity;BMP_temperature;BMP_pressure;BME280_temperature;BME280_humidity;BME280_pressure;Samples;Min_cycle;Max_cycle;Signal;HPM_P1;HPM_P2
2022/07/10 00:01:38;;;;;;;5.22;4.72;;;;;;;;;;10429087;28;20045;-82
2022/07/10 00:06:41;;;;;;;5.68;5.18;;;;;;;;;;10407605;28;20049;-80
2022/07/10 00:11:42;;;;;;;4.88;4.45;;;;;;;;;;10402081;28;20145;-81
2022/07/10 00:16:45;;;;;;;5.95;5.28;;;;;;;;;;10409556;28;20500;-82
2022/07/10 00:21:48;;;;;;;6.25;5.68;;;;;;;;;;10417222;28;20060;-85
2022/07/10 00:26:49;;;;;;;6.60;5.95;;;;;;;;;;10433433;28;20067;-85
2022/07/10 00:31:50;;;;;;;7.50;5.68;;;;;;;;;;10422071;28;20034;-83
2022/07/10 00:36:50;;;;;;;5.57;5.07;;;;;;;;;;10417951;28;20121;-79
2022/07/10 00:41:51;;;;;;;6.23;5.63;;;;;;;;;;10412454;28;20349;-81
2022/07/10 00:46:51;;;;;;;6.10;5.25;;;;;;;;;;10400816;28;20080;-81
2022/07/10 00:51:53;;;;;;;5.50;5.00;;;;;;;;;;10411081;28;20053;-83
2022/07/10 00:56:59;;;;;;;7.00;5.77;;;;;;;;;;10415472;28;20276;-83
2022/07/10 01:02:04;;;;;;;6.28;5.65;;;;;;;;;;10415268;28;20041;-83
2022/07/10 01:07:08;;;;;;;8.23;6.03;;;;;;;;;;10335860;28;20054;-81
2022/07/10 01:12:10;;;;;;;6.40;5.80;;;;;;;;;;10381696;28;20046;-84
2022/07/10 01:17:11;;;;;;;7.78;6.50;;;;;;;;;;10402170;28;20053;-86
2022/07/10 01:22:19;;;;;;;6.28;5.68;;;;;;;;;;10375704;28;20097;-84
2022/07/10 01:27:20;;;;;;;6.55;5.95;;;;;;;;;;10378000;28;20056;-81
2022/07/10 01:32:21;;;;;;;6.68;5.57;;;;;;;;;;10405683;28;20034;-83
2022/07/10 01:37:21;;;;;;;5.40;4.90;;;;;;;;;;10416071;28;20056;-80
2022/07/10 01:42:21;;;;;;;5.37;4.80;;;;;;;;;;10425202;28;20277;-81
2022/07/10 01:47:26;;;;;;;5.03;4.60;;;;;;;;;;10395743;28;20355;-79
2022/07/10 01:52:26;;;;;;;5.75;5.15;;;;;;;;;;10392675;28;20053;-80
2022/07/10 01:57:26;;;;;;;5.20;4.70;;;;;;;;;;10394327;28;20065;-79
2022/07/10 02:02:27;;;;;;;5.22;4.72;;;;;;;;;;10395068;28;20049;-79
2022/07/10 02:07:27;;;;;;;5.30;4.80;;;;;;;;;;10393773;28;20053;-78
2022/07/10 02:12:28;;;;;;;5.72;3.90;;;;;;;;;;10399604;28;20052;-80
2022/07/10 02:17:28;;;;;;;4.88;3.60;;;;;;;;;;10407494;28;20127;-83
2022/07/10 02:22:29;;;;;;;4.70;3.53;;;;;;;;;;10395648;28;20041;-83
2022/07/10 02:27:29;;;;;;;4.27;3.77;;;;;;;;;;10400663;28;20045;-80
2022/07/10 02:32:31;;;;;;;4.53;3.37;;;;;;;;;;10413857;28;20367;-81
2022/07/10 02:37:32;;;;;;;3.92;3.17;;;;;;;;;;10397359;28;20117;-80
2022/07/10 02:42:32;;;;;;;4.43;3.40;;;;;;;;;;10405636;28;20097;-85
2022/07/10 02:47:33;;;;;;;4.13;3.30;;;;;;;;;;10407149;28;20348;-83
2022/07/10 02:52:37;;;;;;;5.05;3.25;;;;;;;;;;10422770;28;20273;-81
2022/07/10 02:57:39;;;;;;;4.05;3.30;;;;;;;;;;10389343;28;20107;-82
2022/07/10 03:02:40;;;;;;;3.28;2.97;;;;;;;;;;10386707;28;20065;-85
2022/07/10 03:08:04;;;;;;;;;;;;;;;;;;;;;
2022/07/10 03:13:08;;;;;;;4.45;3.67;;;;;;;;;;10428215;28;20061;-82
2022/07/10 03:18:09;;;;;;;4.25;3.58;;;;;;;;;;10376652;28;20077;-83
2022/07/10 03:23:12;;;;;;;4.18;3.47;;;;;;;;;;10372926;28;20558;-83
2022/07/10 03:28:18;;;;;;;3.93;3.40;;;;;;;;;;10380590;28;20042;-82
2022/07/10 03:33:18;;;;;;;5.20;3.17;;;;;;;;;;10408387;28;20292;-82
2022/07/10 03:38:18;;;;;;;4.68;3.28;;;;;;;;;;10420438;28;20057;-83
2022/07/10 03:43:19;;;;;;;2.97;2.67;;;;;;;;;;10423232;28;20060;-82
2022/07/10 03:48:20;;;;;;;4.18;2.50;;;;;;;;;;10392054;28;20762;-81
2022/07/10 03:53:22;;;;;;;2.60;2.40;;;;;;;;;;10393476;28;20045;-85
2022/07/10 03:58:25;;;;;;;5.57;2.60;;;;;;;;;;10390947;28;20055;-83
2022/07/10 04:03:33;;;;;;;4.68;2.20;;;;;;;;;;10392799;28;20053;-80
2022/07/10 04:08:34;;;;;;;3.42;1.92;;;;;;;;;;10391661;28;20057;-80
2022/07/10 04:13:41;;;;;;;4.88;2.40;;;;;;;;;;10394370;28;20056;-82
2022/07/10 04:18:41;;;;;;;2.65;1.65;;;;;;;;;;10415118;28;20053;-83
2022/07/10 04:23:42;;;;;;;3.55;2.17;;;;;;;;;;10391967;28;20052;-80
2022/07/10 04:28:43;;;;;;;2.53;1.58;;;;;;;;;;10401046;28;20136;-81
2022/07/10 04:33:48;;;;;;;4.32;2.03;;;;;;;;;;10385731;28;20052;-81
2022/07/10 04:38:50;;;;;;;3.22;1.45;;;;;;;;;;10384872;28;20050;-81
2022/07/10 04:43:51;;;;;;;3.85;1.58;;;;;;;;;;10401209;28;20526;-80
2022/07/10 04:48:53;;;;;;;3.85;1.67;;;;;;;;;;10400886;28;20132;-80
2022/07/10 04:53:56;;;;;;;3.08;1.73;;;;;;;;;;10403864;28;20049;-79
2022/07/10 04:58:56;;;;;;;4.97;2.80;;;;;;;;;;10396777;28;20969;-81
2022/07/10 05:03:57;;;;;;;5.10;2.30;;;;;;;;;;10389622;28;20386;-81
2022/07/10 05:08:59;;;;;;;3.03;1.30;;;;;;;;;;10390923;28;20056;-81
2022/07/10 05:14:00;;;;;;;3.95;2.22;;;;;;;;;;10401684;28;20046;-81
2022/07/10 05:19:00;;;;;;;3.83;2.00;;;;;;;;;;10412794;28;20059;-79
2022/07/10 05:24:01;;;;;;;3.15;1.48;;;;;;;;;;10399920;28;20283;-82
2022/07/10 05:29:02;;;;;;;2.85;1.42;;;;;;;;;;10424761;28;20033;-84
2022/07/10 05:34:15;;;;;;;3.05;1.45;;;;;;;;;;10431344;28;20030;-84
2022/07/10 05:39:16;;;;;;;2.97;1.20;;;;;;;;;;10430215;28;20112;-77
2022/07/10 05:44:20;;;;;;;5.13;3.63;;;;;;;;;;10410661;28;20044;-83
2022/07/10 05:49:23;;;;;;;2.65;1.10;;;;;;;;;;10425600;28;20057;-82
2022/07/10 05:54:24;;;;;;;2.53;1.27;;;;;;;;;;10431044;28;20044;-85
2022/07/10 05:59:28;;;;;;;3.17;1.30;;;;;;;;;;10435446;28;20050;-80
2022/07/10 06:04:30;;;;;;;3.65;1.15;;;;;;;;;;10413464;28;20052;-80
2022/07/10 06:09:31;;;;;;;2.85;1.00;;;;;;;;;;10421111;28;20133;-79
2022/07/10 06:14:31;;;;;;;1.23;1.00;;;;;;;;;;10415138;28;20046;-72
2022/07/10 06:19:32;;;;;;;3.63;1.30;;;;;;;;;;10376230;28;20052;-73
2022/07/10 06:24:32;;;;;;;2.83;1.07;;;;;;;;;;10398346;28;20731;-71
2022/07/10 06:29:32;;;;;;;2.23;1.30;;;;;;;;;;10397268;28;20046;-73
2022/07/10 06:34:33;;;;;;;1.65;1.42;;;;;;;;;;10400679;28;20104;-75
2022/07/10 06:39:34;;;;;;;1.87;1.30;;;;;;;;;;10394367;28;20543;-70
2022/07/10 06:44:35;;;;;;;1.30;1.10;;;;;;;;;;10391019;28;20299;-77
2022/07/10 06:49:35;;;;;;;16.88;10.48;;;;;;;;;;10390851;28;20056;-71
2022/07/10 06:54:35;;;;;;;4.03;1.25;;;;;;;;;;10391443;28;20050;-73
2022/07/10 06:59:36;;;;;;;2.22;1.30;;;;;;;;;;10390223;28;20108;-75
2022/07/10 07:04:36;;;;;;;2.75;1.55;;;;;;;;;;10387355;28;20125;-72
2022/07/10 07:09:37;;;;;;;3.72;1.52;;;;;;;;;;10388925;28;20099;-74
2022/07/10 07:14:37;;;;;;;3.05;0.80;;;;;;;;;;10387214;28;20517;-73
2022/07/10 07:24:57;;;;;;;2.42;0.98;;;;;;;;;;10394368;28;21080;-74
2022/07/10 07:30:00;;;;;;;6.00;2.70;;;;;;;;;;10394919;28;20145;-72
2022/07/10 07:35:01;;;;;;;1.40;0.80;;;;;;;;;;10392746;28;20367;-79
2022/07/10 07:40:01;;;;;;;1.77;0.80;;;;;;;;;;10380513;28;20053;-79
2022/07/10 07:45:04;;;;;;;1.52;0.80;;;;;;;;;;10390891;28;20064;-80
2022/07/10 07:50:06;;;;;;;;;;;;;;;;;;10390104;28;20056;-81
2022/07/10 07:55:10;;;;;;;2.28;1.02;;;;;;;;;;10387302;28;19917;-81
2022/07/10 08:00:11;;;;;;;2.05;0.90;;;;;;;;;;10398261;28;20145;-79
2022/07/10 08:05:16;;;;;;;1.45;0.70;;;;;;;;;;10399729;28;20430;-80
2022/07/10 08:10:18;;;;;;;2.00;0.80;;;;;;;;;;10397628;28;20231;-78
2022/07/10 08:15:21;;;;;;;2.95;0.70;;;;;;;;;;10408211;28;20050;-78
2022/07/10 08:20:23;;;;;;;2.47;0.88;;;;;;;;;;10413066;28;20116;-77
2022/07/10 08:25:24;;;;;;;2.50;0.60;;;;;;;;;;10399537;28;20042;-79
2022/07/10 08:30:24;;;;;;;1.50;0.70;;;;;;;;;;10406101;28;20057;-81
2022/07/10 08:35:25;;;;;;;0.87;0.70;;;;;;;;;;10400947;28;20500;-80
2022/07/10 08:40:26;;;;;;;0.95;0.70;;;;;;;;;;10410739;28;20293;-77
2022/07/10 08:45:27;;;;;;;1.58;0.57;;;;;;;;;;10385356;28;20084;-77
2022/07/10 08:50:28;;;;;;;1.70;0.70;;;;;;;;;;10384167;28;20050;-77
2022/07/10 08:55:29;;;;;;;1.50;0.50;;;;;;;;;;10373666;28;20140;-78
2022/07/10 09:00:29;;;;;;;2.25;0.70;;;;;;;;;;10379640;28;20042;-78
2022/07/10 09:05:30;;;;;;;4.47;2.83;;;;;;;;;;10385751;28;20045;-78
2022/07/10 09:10:32;;;;;;;1.73;1.00;;;;;;;;;;10386665;28;20694;-78
2022/07/10 09:15:32;;;;;;;8.10;4.35;;;;;;;;;;10386767;28;20054;-76
2022/07/10 09:20:34;;;;;;;2.03;1.00;;;;;;;;;;10378891;28;20049;-79
2022/07/10 09:25:35;;;;;;;2.57;1.87;;;;;;;;;;10392375;28;20069;-78
2022/07/10 09:30:37;;;;;;;1.83;1.00;;;;;;;;;;10377792;28;20164;-77
2022/07/10 09:36:10;;;;;;;1.27;0.60;;;;;;;;;;10418094;28;20042;-80
2022/07/10 09:41:15;;;;;;;2.22;1.05;;;;;;;;;;10412595;28;20053;-78
2022/07/10 09:46:39;;;;;;;2.25;1.30;;;;;;;;;;10413819;28;20125;-79
2022/07/10 09:51:40;;;;;;;3.35;1.30;;;;;;;;;;10359213;28;20826;-79
2022/07/10 09:56:46;;;;;;;2.40;1.17;;;;;;;;;;10414803;28;20057;-80
2022/07/10 10:01:48;;;;;;;4.25;1.00;;;;;;;;;;10407122;28;20033;-80
2022/07/10 10:06:52;;;;;;;1.48;0.85;;;;;;;;;;10420568;28;20049;-79
2022/07/10 10:11:57;;;;;;;3.60;2.05;;;;;;;;;;10404850;28;20046;-77
2022/07/10 10:16:59;;;;;;;1.95;0.90;;;;;;;;;;10398021;28;20057;-77
2022/07/10 10:22:01;;;;;;;2.20;1.10;;;;;;;;;;10400432;28;20081;-78
2022/07/10 10:27:04;;;;;;;2.47;1.07;;;;;;;;;;10395861;28;20132;-78
2022/07/10 10:32:07;;;;;;;2.90;1.10;;;;;;;;;;10397212;28;20052;-80
2022/07/10 10:37:26;;;;;;;3.33;1.40;;;;;;;;;;10395375;28;20054;-78
2022/07/10 10:42:34;;;;;;;6.07;1.33;;;;;;;;;;10392293;28;20076;-78
2022/07/10 10:47:53;;;;;;;2.65;1.60;;;;;;;;;;10396432;28;20481;-79
2022/07/10 10:53:00;;;;;;;4.88;1.80;;;;;;;;;;10397058;28;20048;-77
2022/07/10 10:58:20;;;;;;;3.00;1.05;;;;;;;;;;10395912;28;20524;-76
2022/07/10 11:03:22;;;;;;;2.70;1.33;;;;;;;;;;10413726;28;20110;-78
2022/07/10 11:08:39;;;;;;;2.40;1.40;;;;;;;;;;10412721;28;20049;-78
2022/07/10 11:13:40;;;;;;;3.47;1.10;;;;;;;;;;10421633;28;20552;-78
2022/07/10 11:18:40;;;;;;;2.78;1.50;;;;;;;;;;10430294;28;20111;-77
2022/07/10 11:23:53;;;;;;;2.58;1.50;;;;;;;;;;10416838;28;20041;-77
2022/07/10 11:29:05;;;;;;;2.90;2.00;;;;;;;;;;10406267;28;20124;-79
2022/07/10 11:34:08;;;;;;;3.67;1.42;;;;;;;;;;10393962;28;20053;-77
2022/07/10 11:39:08;;;;;;;1.73;1.07;;;;;;;;;;10405430;28;20084;-79
2022/07/10 11:44:13;;;;;;;3.47;2.35;;;;;;;;;;10395179;28;20049;-77
2022/07/10 11:49:14;;;;;;;1.80;1.00;;;;;;;;;;10414782;28;20068;-80
2022/07/10 11:54:19;;;;;;;2.60;1.25;;;;;;;;;;10413502;28;20041;-81
2022/07/10 11:59:26;;;;;;;2.03;1.00;;;;;;;;;;10388625;28;20061;-79
2022/07/10 12:04:35;;;;;;;1.88;0.90;;;;;;;;;;10405784;28;20050;-81
2022/07/10 12:09:38;;;;;;;2.08;1.17;;;;;;;;;;10426566;28;20061;-80
2022/07/10 12:14:40;;;;;;;1.30;0.70;;;;;;;;;;10396493;28;20041;-78
2022/07/10 12:19:43;;;;;;;0.85;0.75;;;;;;;;;;10396458;28;20080;-80
2022/07/10 12:24:44;;;;;;;2.88;1.30;;;;;;;;;;10411107;28;20042;-81
2022/07/10 12:29:59;;;;;;;1.87;1.10;;;;;;;;;;10404266;28;20045;-80
2022/07/10 12:34:59;;;;;;;1.58;1.00;;;;;;;;;;10425897;28;20288;-83
2022/07/10 12:40:02;;;;;;;3.35;1.52;;;;;;;;;;10418252;28;20053;-80
2022/07/10 12:45:12;;;;;;;2.65;1.60;;;;;;;;;;10411140;28;20109;-81
2022/07/10 12:50:13;;;;;;;1.83;1.20;;;;;;;;;;10408634;28;20085;-80
2022/07/10 12:55:14;;;;;;;1.85;0.80;;;;;;;;;;10413717;28;20065;-80
2022/07/10 13:00:15;;;;;;;1.83;0.98;;;;;;;;;;10411566;28;20397;-78
2022/07/10 13:05:26;;;;;;;1.50;1.00;;;;;;;;;;10410259;28;20105;-82
2022/07/10 13:10:27;;;;;;;1.65;0.80;;;;;;;;;;10429464;28;20041;-81
2022/07/10 13:15:29;;;;;;;2.03;1.10;;;;;;;;;;10428568;28;20017;-81
2022/07/10 13:20:30;;;;;;;1.30;0.93;;;;;;;;;;10442402;28;20258;-81
2022/07/10 13:25:32;;;;;;;2.55;0.90;;;;;;;;;;10425769;28;20104;-79
2022/07/10 13:30:33;;;;;;;1.13;1.00;;;;;;;;;;10415728;28;20048;-80
2022/07/10 13:35:34;;;;;;;4.90;1.88;;;;;;;;;;10405506;28;20465;-78
2022/07/10 13:40:35;;;;;;;4.25;2.28;;;;;;;;;;10387324;28;20041;-79
2022/07/10 13:45:54;;;;;;;2.58;1.48;;;;;;;;;;10410499;28;20050;-82
2022/07/10 13:50:55;;;;;;;2.20;1.00;;;;;;;;;;10414926;28;20053;-82
2022/07/10 13:55:57;;;;;;;2.38;1.40;;;;;;;;;;10416443;28;20056;-83
2022/07/10 14:00:59;;;;;;;1.70;0.80;;;;;;;;;;10422978;28;20084;-80
2022/07/10 14:05:59;;;;;;;2.67;1.13;;;;;;;;;;10422173;28;20065;-80
2022/07/10 14:11:06;;;;;;;2.47;1.00;;;;;;;;;;10401281;28;20441;-83
2022/07/10 14:16:06;;;;;;;2.65;1.00;;;;;;;;;;10384207;28;20076;-80
2022/07/10 14:21:08;;;;;;;4.40;3.05;;;;;;;;;;10393797;28;20030;-79
2022/07/10 14:26:11;;;;;;;1.35;1.08;;;;;;;;;;10390074;28;20047;-81
2022/07/10 14:31:12;;;;;;;2.15;1.10;;;;;;;;;;10411992;28;20058;-82
2022/07/10 14:36:14;;;;;;;1.65;0.70;;;;;;;;;;10410697;28;20528;-79
2022/07/10 14:41:15;;;;;;;2.37;0.90;;;;;;;;;;10374082;28;20369;-81
2022/07/10 14:46:15;;;;;;;1.30;0.90;;;;;;;;;;10415062;28;20284;-80
2022/07/10 14:51:17;;;;;;;2.35;1.20;;;;;;;;;;10387116;28;20095;-79
2022/07/10 14:56:20;;;;;;;1.90;0.90;;;;;;;;;;10402849;28;20131;-79
2022/07/10 15:01:21;;;;;;;1.30;0.90;;;;;;;;;;10409729;28;20157;-81
2022/07/10 15:06:21;;;;;;;1.67;0.95;;;;;;;;;;10417174;28;20183;-79
2022/07/10 15:11:23;;;;;;;1.63;1.17;;;;;;;;;;10406056;28;20067;-79
2022/07/10 15:16:26;;;;;;;3.33;1.23;;;;;;;;;;10421342;28;20054;-83
2022/07/10 15:21:29;;;;;;;2.28;1.00;;;;;;;;;;10423612;28;20109;-84
2022/07/10 15:26:30;;;;;;;1.20;0.80;;;;;;;;;;10418833;28;20056;-83
2022/07/10 15:31:30;;;;;;;2.35;1.20;;;;;;;;;;10396717;28;20053;-75
2022/07/10 15:36:31;;;;;;;1.50;1.00;;;;;;;;;;10381605;28;20580;-77
2022/07/10 15:41:33;;;;;;;2.40;1.05;;;;;;;;;;10391181;28;20045;-78
2022/07/10 15:46:34;;;;;;;2.72;1.42;;;;;;;;;;10381627;28;20125;-77
2022/07/10 15:51:34;;;;;;;1.93;0.90;;;;;;;;;;10386427;28;20132;-76
2022/07/10 15:56:35;;;;;;;2.22;1.00;;;;;;;;;;10387271;28;20049;-76
2022/07/10 16:01:36;;;;;;;4.00;1.37;;;;;;;;;;10386162;28;20053;-74
2022/07/10 16:06:36;;;;;;;1.45;1.10;;;;;;;;;;10389758;28;20285;-77
2022/07/10 16:11:37;;;;;;;1.40;0.90;;;;;;;;;;10386579;28;20099;-77
2022/07/10 16:16:37;;;;;;;1.30;1.05;;;;;;;;;;10381779;28;20366;-76
2022/07/10 16:21:38;;;;;;;1.95;1.00;;;;;;;;;;10383387;28;20045;-77
2022/07/10 16:26:38;;;;;;;2.08;0.90;;;;;;;;;;10384099;28;20049;-76
2022/07/10 16:31:41;;;;;;;3.45;1.20;;;;;;;;;;10398789;28;20056;-75
2022/07/10 16:36:41;;;;;;;;;;;;;;;;;;10391396;28;20049;-74
2022/07/10 16:41:41;;;;;;;2.05;1.10;;;;;;;;;;10402921;28;20677;-77
2022/07/10 16:46:42;;;;;;;2.93;1.57;;;;;;;;;;10401865;28;20152;-77
2022/07/10 16:51:43;;;;;;;1.38;0.77;;;;;;;;;;10390706;28;20355;-79
2022/07/10 16:56:43;;;;;;;2.90;1.20;;;;;;;;;;10386214;28;20059;-75
2022/07/10 17:01:44;;;;;;;2.97;1.60;;;;;;;;;;10378716;28;20052;-76
2022/07/10 17:06:44;;;;;;;2.67;1.57;;;;;;;;;;10378489;28;20046;-74
2022/07/10 17:11:44;;;;;;;1.30;1.00;;;;;;;;;;10387176;28;20802;-75
2022/07/10 17:16:45;;;;;;;1.93;1.00;;;;;;;;;;10377181;28;20087;-75
2022/07/10 17:21:48;;;;;;;1.13;0.90;;;;;;;;;;10379878;28;20046;-75
2022/07/10 17:26:49;;;;;;;1.73;1.17;;;;;;;;;;10387886;28;20045;-75
2022/07/10 17:31:49;;;;;;;1.00;0.82;;;;;;;;;;10381973;28;20535;-76
2022/07/10 17:36:50;;;;;;;1.40;1.00;;;;;;;;;;10384288;28;20061;-75
2022/07/10 17:41:51;;;;;;;2.35;0.90;;;;;;;;;;10384769;28;20747;-75
2022/07/10 17:46:56;;;;;;;3.28;1.40;;;;;;;;;;10394673;28;20046;-76
2022/07/10 17:51:56;;;;;;;4.03;1.25;;;;;;;;;;10390786;28;20057;-76
2022/07/10 17:56:57;;;;;;;1.25;1.13;;;;;;;;;;10396220;28;20060;-75
2022/07/10 18:01:57;;;;;;;2.50;1.08;;;;;;;;;;10384866;28;20052;-77
2022/07/10 18:06:59;;;;;;;2.10;0.97;;;;;;;;;;10401909;28;20065;-81
2022/07/10 18:12:00;;;;;;;1.70;1.23;;;;;;;;;;10440076;28;20284;-82
2022/07/10 18:17:04;;;;;;;2.05;1.30;;;;;;;;;;10430906;28;20056;-79
2022/07/10 18:22:08;;;;;;;1.77;1.48;;;;;;;;;;10417506;28;20449;-80
2022/07/10 18:27:09;;;;;;;3.10;1.70;;;;;;;;;;10430026;28;20036;-79
2022/07/10 18:32:11;;;;;;;1.52;0.80;;;;;;;;;;10397259;28;20071;-82
2022/07/10 18:37:13;;;;;;;2.65;1.27;;;;;;;;;;10425499;28;20037;-84
2022/07/10 18:42:24;;;;;;;2.22;1.33;;;;;;;;;;10424873;28;20037;-80
2022/07/10 18:47:44;;;;;;;5.20;1.55;;;;;;;;;;10410763;28;20038;-80
2022/07/10 18:52:48;;;;;;;3.08;0.98;;;;;;;;;;10394220;28;20045;-82
2022/07/10 18:57:55;;;;;;;2.85;1.35;;;;;;;;;;10421652;28;20086;-82
2022/07/10 19:03:05;;;;;;;2.03;1.13;;;;;;;;;;10403627;28;20046;-82
2022/07/10 19:08:10;;;;;;;2.80;1.42;;;;;;;;;;10406846;28;20049;-81
2022/07/10 19:13:29;;;;;;;3.25;1.70;;;;;;;;;;10389404;28;20049;-82
2022/07/10 19:18:39;;;;;;;2.75;1.90;;;;;;;;;;10403380;28;20057;-82
2022/07/10 19:23:39;;;;;;;3.75;2.00;;;;;;;;;;10428889;28;20033;-80
2022/07/10 19:28:41;;;;;;;2.15;1.20;;;;;;;;;;10424983;28;20049;-80
2022/07/10 19:33:41;;;;;;;2.15;1.27;;;;;;;;;;10410602;28;20068;-81
2022/07/10 19:38:50;;;;;;;4.25;1.92;;;;;;;;;;10412941;28;20079;-84
2022/07/10 19:43:56;;;;;;;4.88;2.67;;;;;;;;;;10424689;28;20571;-85
2022/07/10 19:48:58;;;;;;;4.70;2.30;;;;;;;;;;10423185;28;20053;-84
2022/07/10 19:54:00;;;;;;;2.40;1.27;;;;;;;;;;10421271;28;20049;-85
2022/07/10 19:59:03;;;;;;;2.90;1.20;;;;;;;;;;10409357;28;20049;-82
2022/07/10 20:04:05;;;;;;;4.18;1.92;;;;;;;;;;10396645;28;20080;-82
2022/07/10 20:09:08;;;;;;;3.65;1.80;;;;;;;;;;10364034;28;20049;-84
2022/07/10 20:14:09;;;;;;;3.42;1.50;;;;;;;;;;10360177;28;20102;-82
2022/07/10 20:19:13;;;;;;;;;;;;;;;;;;10351065;28;20046;-84
2022/07/10 20:24:21;;;;;;;2.67;1.60;;;;;;;;;;10341247;28;19937;-83
2022/07/10 20:29:23;;;;;;;3.17;1.38;;;;;;;;;;10369896;28;20053;-84
2022/07/10 20:34:28;;;;;;;2.15;1.33;;;;;;;;;;10388184;28;20077;-82
2022/07/10 20:39:29;;;;;;;2.13;1.40;;;;;;;;;;10373640;28;20053;-86
2022/07/10 20:44:33;;;;;;;3.53;1.60;;;;;;;;;;10392145;28;20070;-88
2022/07/10 20:49:35;;;;;;;2.58;1.55;;;;;;;;;;10374580;28;20090;-84
2022/07/10 20:54:36;;;;;;;3.50;1.50;;;;;;;;;;10401243;28;20160;-82
2022/07/10 20:59:41;;;;;;;2.00;1.05;;;;;;;;;;10385822;28;20046;-85
2022/07/10 21:04:45;;;;;;;2.22;1.20;;;;;;;;;;10353169;28;20046;-87
2022/07/10 21:09:49;;;;;;;2.17;1.55;;;;;;;;;;10353411;28;20110;-84
2022/07/10 21:14:53;;;;;;;5.18;2.05;;;;;;;;;;10359936;28;20056;-85
2022/07/10 21:19:57;;;;;;;2.65;1.80;;;;;;;;;;10331033;28;20042;-87
2022/07/10 21:25:01;;;;;;;3.50;1.30;;;;;;;;;;10369666;28;20026;-84
2022/07/10 21:30:04;;;;;;;2.55;1.30;;;;;;;;;;10357292;28;20072;-83
2022/07/10 21:35:06;;;;;;;4.55;1.90;;;;;;;;;;10365063;28;20042;-84
2022/07/10 21:40:09;;;;;;;3.97;2.15;;;;;;;;;;10357835;28;20057;-83
2022/07/10 21:45:12;;;;;;;4.47;1.83;;;;;;;;;;10363960;28;20044;-85
2022/07/10 21:50:17;;;;;;;3.03;1.70;;;;;;;;;;10379335;28;20032;-88
2022/07/10 21:55:22;;;;;;;4.20;1.70;;;;;;;;;;10347704;28;20051;-85
2022/07/10 22:00:28;;;;;;;2.42;1.50;;;;;;;;;;10366100;28;20042;-83
2022/07/10 22:05:32;;;;;;;4.00;1.35;;;;;;;;;;10384574;28;20034;-85
2022/07/10 22:10:33;;;;;;;2.78;1.30;;;;;;;;;;10448043;23;20104;-86
2022/07/10 22:15:35;;;;;;;2.72;1.20;;;;;;;;;;10431597;28;20049;-81
2022/07/10 22:20:36;;;;;;;2.95;1.42;;;;;;;;;;10417455;28;20404;-84
2022/07/10 22:25:38;;;;;;;3.42;1.42;;;;;;;;;;10427277;28;20575;-88
2022/07/10 22:36:03;;;;;;;1.63;1.38;;;;;;;;;;10423038;28;20111;-81
2022/07/10 22:41:05;;;;;;;2.92;1.17;;;;;;;;;;10407580;28;20095;-82
2022/07/10 22:46:07;;;;;;;1.67;1.27;;;;;;;;;;10415034;28;20037;-82
2022/07/10 22:51:08;;;;;;;4.50;1.25;;;;;;;;;;10368436;28;20470;-81
2022/07/10 22:56:12;;;;;;;2.10;1.10;;;;;;;;;;10425364;28;20041;-82
2022/07/10 23:01:17;;;;;;;4.72;1.40;;;;;;;;;;10442538;28;20437;-82
2022/07/10 23:06:21;;;;;;;3.55;1.58;;;;;;;;;;10441881;28;20042;-86
2022/07/10 23:11:22;;;;;;;3.55;1.35;;;;;;;;;;10415587;28;20046;-80
2022/07/10 23:16:25;;;;;;;;;;;;;;;;;;10412191;28;20053;-81
2022/07/10 23:21:27;;;;;;;2.65;1.00;;;;;;;;;;10408636;28;19924;-81
2022/07/10 23:26:27;;;;;;;2.83;1.40;;;;;;;;;;10415810;28;20049;-82
2022/07/10 23:31:28;;;;;;;2.30;1.35;;;;;;;;;;10412468;28;20404;-85
2022/07/10 23:36:29;;;;;;;2.38;1.13;;;;;;;;;;10415623;28;20067;-82
2022/07/10 23:41:29;;;;;;;2.07;1.20;;;;;;;;;;10404063;28;20079;-81
2022/07/10 23:46:30;;;;;;;1.60;1.00;;;;;;;;;;10409369;28;20033;-82
2022/07/10 23:51:30;;;;;;;1.88;1.00;;;;;;;;;;10425457;28;20307;-82
2022/07/10 23:56:30;;;;;;;1.63;1.20;;;;;;;;;;10427178;28;20052;-82
